sensor_id;sensor_type;location;lat;lon;timestamp;temperature;humidity
16627;DHT22;8427;52.204;7.202;2023-09-19T00:00:56;16.40;82.80
16627;DHT22;8427;52.204;7.202;2023-09-19T00:03:24;16.40;82.80
16627;DHT22;8427;52.204;7.202;2023-09-19T00:05:54;16.40;82.30
16627;DHT22;8427;52.204;7.202;2023-09-19T00:08:23;16.50;82.20
16627;DHT22;8427;52.204;7.202;2023-09-19T00:10:52;16.40;82.00
16627;DHT22;8427;52.204;7.202;2023-09-19T00:13:30;16.40;82.20
16627;DHT22;8427;52.204;7.202;2023-09-19T00:15:58;16.50;82.30
16627;DHT22;8427;52.204;7.202;2023-09-19T00:18:35;16.40;81.80
16627;DHT22;8427;52.204;7.202;2023-09-19T00:21:03;16.40;82.10
16627;DHT22;8427;52.204;7.202;2023-09-19T00:23:33;16.40;82.10
16627;DHT22;8427;52.204;7.202;2023-09-19T00:26:03;16.20;82.00
16627;DHT22;8427;52.204;7.202;2023-09-19T00:28:32;16.10;82.60
16627;DHT22;8427;52.204;7.202;2023-09-19T00:31:02;16.20;82.50
16627;DHT22;8427;52.204;7.202;2023-09-19T00:33:34;16.10;82.80
16627;DHT22;8427;52.204;7.202;2023-09-19T00:36:04;16.00;82.60
16627;DHT22;8427;52.204;7.202;2023-09-19T00:38:34;16.00;82.90
16627;DHT22;8427;52.204;7.202;2023-09-19T00:41:06;16.00;82.90
16627;DHT22;8427;52.204;7.202;2023-09-19T00:43:36;16.00;83.00
16627;DHT22;8427;52.204;7.202;2023-09-19T00:46:05;15.80;82.60
16627;DHT22;8427;52.204;7.202;2023-09-19T00:48:36;16.00;82.60
16627;DHT22;8427;52.204;7.202;2023-09-19T00:51:11;15.80;82.50
16627;DHT22;8427;52.204;7.202;2023-09-19T00:53:40;15.80;82.70
16627;DHT22;8427;52.204;7.202;2023-09-19T00:56:24;15.90;82.90
16627;DHT22;8427;52.204;7.202;2023-09-19T00:58:54;15.80;82.50
16627;DHT22;8427;52.204;7.202;2023-09-19T01:01:25;15.90;82.40
16627;DHT22;8427;52.204;7.202;2023-09-19T01:03:53;15.90;82.70
16627;DHT22;8427;52.204;7.202;2023-09-19T01:06:22;15.90;83.10
16627;DHT22;8427;52.204;7.202;2023-09-19T01:08:58;15.90;83.20
16627;DHT22;8427;52.204;7.202;2023-09-19T01:11:28;15.90;83.10
16627;DHT22;8427;52.204;7.202;2023-09-19T01:14:02;15.80;83.10
16627;DHT22;8427;52.204;7.202;2023-09-19T01:16:35;15.80;83.10
16627;DHT22;8427;52.204;7.202;2023-09-19T01:19:12;15.90;82.80
16627;DHT22;8427;52.204;7.202;2023-09-19T01:21:50;15.90;82.80
16627;DHT22;8427;52.204;7.202;2023-09-19T01:24:30;15.90;83.00
16627;DHT22;8427;52.204;7.202;2023-09-19T01:27:23;15.80;83.00
16627;DHT22;8427;52.204;7.202;2023-09-19T01:30:05;15.80;83.10
16627;DHT22;8427;52.204;7.202;2023-09-19T01:32:35;15.80;83.00
16627;DHT22;8427;52.204;7.202;2023-09-19T01:35:07;15.80;83.10
16627;DHT22;8427;52.204;7.202;2023-09-19T01:37:50;15.90;83.00
16627;DHT22;8427;52.204;7.202;2023-09-19T01:40:21;15.70;83.20
16627;DHT22;8427;52.204;7.202;2023-09-19T01:42:54;15.80;83.10
16627;DHT22;8427;52.204;7.202;2023-09-19T01:45:31;15.80;83.30
16627;DHT22;8427;52.204;7.202;2023-09-19T01:48:05;15.70;83.00
16627;DHT22;8427;52.204;7.202;2023-09-19T01:50:41;15.60;83.00
16627;DHT22;8427;52.204;7.202;2023-09-19T01:53:14;15.70;82.80
16627;DHT22;8427;52.204;7.202;2023-09-19T01:55:44;15.60;83.20
16627;DHT22;8427;52.204;7.202;2023-09-19T01:58:16;15.60;83.00
16627;DHT22;8427;52.204;7.202;2023-09-19T02:00:47;15.60;82.70
16627;DHT22;8427;52.204;7.202;2023-09-19T02:03:19;15.60;82.80
16627;DHT22;8427;52.204;7.202;2023-09-19T02:05:49;15.40;82.80
16627;DHT22;8427;52.204;7.202;2023-09-19T02:08:19;15.40;82.80
16627;DHT22;8427;52.204;7.202;2023-09-19T02:10:50;15.40;82.50
16627;DHT22;8427;52.204;7.202;2023-09-19T02:13:22;15.30;83.00
16627;DHT22;8427;52.204;7.202;2023-09-19T02:15:58;15.40;82.60
16627;DHT22;8427;52.204;7.202;2023-09-19T02:18:27;15.20;82.50
16627;DHT22;8427;52.204;7.202;2023-09-19T02:20:55;15.30;82.10
16627;DHT22;8427;52.204;7.202;2023-09-19T02:23:27;15.20;82.70
16627;DHT22;8427;52.204;7.202;2023-09-19T02:25:56;15.20;82.50
16627;DHT22;8427;52.204;7.202;2023-09-19T02:28:27;15.20;82.60
16627;DHT22;8427;52.204;7.202;2023-09-19T02:31:01;15.10;82.60
16627;DHT22;8427;52.204;7.202;2023-09-19T02:33:32;15.20;82.80
16627;DHT22;8427;52.204;7.202;2023-09-19T02:36:03;15.10;83.00
16627;DHT22;8427;52.204;7.202;2023-09-19T02:38:32;15.20;83.30
16627;DHT22;8427;52.204;7.202;2023-09-19T02:41:00;15.20;83.40
16627;DHT22;8427;52.204;7.202;2023-09-19T02:43:28;15.20;83.50
16627;DHT22;8427;52.204;7.202;2023-09-19T02:45:57;15.20;83.60
16627;DHT22;8427;52.204;7.202;2023-09-19T02:48:27;15.00;83.80
16627;DHT22;8427;52.204;7.202;2023-09-19T02:50:59;15.10;84.10
16627;DHT22;8427;52.204;7.202;2023-09-19T02:53:30;15.10;84.10
16627;DHT22;8427;52.204;7.202;2023-09-19T02:55:58;15.00;84.30
16627;DHT22;8427;52.204;7.202;2023-09-19T02:58:34;15.00;84.40
16627;DHT22;8427;52.204;7.202;2023-09-19T03:01:11;15.00;84.30
16627;DHT22;8427;52.204;7.202;2023-09-19T03:03:41;14.90;84.20
16627;DHT22;8427;52.204;7.202;2023-09-19T03:06:18;15.00;84.50
16627;DHT22;8427;52.204;7.202;2023-09-19T03:08:51;14.90;84.20
16627;DHT22;8427;52.204;7.202;2023-09-19T03:11:19;14.80;84.50
16627;DHT22;8427;52.204;7.202;2023-09-19T03:13:53;14.80;84.50
16627;DHT22;8427;52.204;7.202;2023-09-19T03:16:27;14.80;84.40
16627;DHT22;8427;52.204;7.202;2023-09-19T03:18:57;14.80;84.40
16627;DHT22;8427;52.204;7.202;2023-09-19T03:21:43;14.70;84.00
16627;DHT22;8427;52.204;7.202;2023-09-19T03:24:12;14.70;84.20
16627;DHT22;8427;52.204;7.202;2023-09-19T03:26:42;14.80;84.20
16627;DHT22;8427;52.204;7.202;2023-09-19T03:29:10;14.60;84.20
16627;DHT22;8427;52.204;7.202;2023-09-19T03:31:37;14.70;84.30
16627;DHT22;8427;52.204;7.202;2023-09-19T03:34:07;14.60;84.30
16627;DHT22;8427;52.204;7.202;2023-09-19T03:36:35;14.60;84.20
16627;DHT22;8427;52.204;7.202;2023-09-19T03:39:03;14.50;84.40
16627;DHT22;8427;52.204;7.202;2023-09-19T03:41:32;14.50;84.30
16627;DHT22;8427;52.204;7.202;2023-09-19T03:43:59;14.50;84.40
16627;DHT22;8427;52.204;7.202;2023-09-19T03:46:27;14.50;84.10
16627;DHT22;8427;52.204;7.202;2023-09-19T03:48:57;14.40;84.00
16627;DHT22;8427;52.204;7.202;2023-09-19T03:51:26;14.50;84.10
16627;DHT22;8427;52.204;7.202;2023-09-19T03:53:54;14.50;84.20
16627;DHT22;8427;52.204;7.202;2023-09-19T03:56:22;14.40;83.80
16627;DHT22;8427;52.204;7.202;2023-09-19T03:58:50;14.50;83.70
16627;DHT22;8427;52.204;7.202;2023-09-19T04:01:18;14.40;83.30
16627;DHT22;8427;52.204;7.202;2023-09-19T04:03:46;14.40;83.60
16627;DHT22;8427;52.204;7.202;2023-09-19T04:06:14;14.30;83.70
16627;DHT22;8427;52.204;7.202;2023-09-19T04:08:44;14.40;83.40
16627;DHT22;8427;52.204;7.202;2023-09-19T04:11:12;14.30;83.40
16627;DHT22;8427;52.204;7.202;2023-09-19T04:13:40;14.30;83.40
16627;DHT22;8427;52.204;7.202;2023-09-19T04:16:08;14.30;83.20
16627;DHT22;8427;52.204;7.202;2023-09-19T04:18:36;14.30;83.00
16627;DHT22;8427;52.204;7.202;2023-09-19T04:21:06;14.30;82.80
16627;DHT22;8427;52.204;7.202;2023-09-19T04:23:34;14.30;82.60
16627;DHT22;8427;52.204;7.202;2023-09-19T04:26:03;14.30;82.30
16627;DHT22;8427;52.204;7.202;2023-09-19T04:28:32;14.20;82.30
16627;DHT22;8427;52.204;7.202;2023-09-19T04:31:00;14.20;82.20
16627;DHT22;8427;52.204;7.202;2023-09-19T04:33:28;14.10;82.20
16627;DHT22;8427;52.204;7.202;2023-09-19T04:35:56;14.10;81.70
16627;DHT22;8427;52.204;7.202;2023-09-19T04:38:33;14.10;81.90
16627;DHT22;8427;52.204;7.202;2023-09-19T04:41:02;14.00;82.00
16627;DHT22;8427;52.204;7.202;2023-09-19T04:43:30;13.90;82.10
16627;DHT22;8427;52.204;7.202;2023-09-19T04:45:58;14.00;81.80
16627;DHT22;8427;52.204;7.202;2023-09-19T04:48:27;14.00;81.80
16627;DHT22;8427;52.204;7.202;2023-09-19T04:50:55;14.00;81.70
16627;DHT22;8427;52.204;7.202;2023-09-19T04:53:23;13.90;81.80
16627;DHT22;8427;52.204;7.202;2023-09-19T04:55:51;13.90;81.70
16627;DHT22;8427;52.204;7.202;2023-09-19T04:58:23;13.80;81.70
16627;DHT22;8427;52.204;7.202;2023-09-19T05:00:51;13.90;81.70
16627;DHT22;8427;52.204;7.202;2023-09-19T05:03:19;13.80;81.90
16627;DHT22;8427;52.204;7.202;2023-09-19T05:05:48;13.70;82.00
16627;DHT22;8427;52.204;7.202;2023-09-19T05:08:16;13.70;81.70
16627;DHT22;8427;52.204;7.202;2023-09-19T05:10:44;13.70;81.70
16627;DHT22;8427;52.204;7.202;2023-09-19T05:13:12;13.70;81.70
16627;DHT22;8427;52.204;7.202;2023-09-19T05:15:41;13.70;81.90
16627;DHT22;8427;52.204;7.202;2023-09-19T05:18:09;13.70;81.60
16627;DHT22;8427;52.204;7.202;2023-09-19T05:20:37;13.70;81.50
16627;DHT22;8427;52.204;7.202;2023-09-19T05:23:06;13.70;81.60
16627;DHT22;8427;52.204;7.202;2023-09-19T05:25:39;13.60;81.80
16627;DHT22;8427;52.204;7.202;2023-09-19T05:28:07;13.70;81.50
16627;DHT22;8427;52.204;7.202;2023-09-19T05:30:35;13.70;81.10
16627;DHT22;8427;52.204;7.202;2023-09-19T05:33:07;13.50;81.10
16627;DHT22;8427;52.204;7.202;2023-09-19T05:35:35;13.60;81.30
16627;DHT22;8427;52.204;7.202;2023-09-19T05:38:04;13.60;81.10
16627;DHT22;8427;52.204;7.202;2023-09-19T05:40:35;13.60;81.10
16627;DHT22;8427;52.204;7.202;2023-09-19T05:43:05;13.60;80.60
16627;DHT22;8427;52.204;7.202;2023-09-19T05:45:33;13.70;80.80
16627;DHT22;8427;52.204;7.202;2023-09-19T05:48:08;13.70;80.60
16627;DHT22;8427;52.204;7.202;2023-09-19T05:50:36;13.70;80.30
16627;DHT22;8427;52.204;7.202;2023-09-19T05:53:04;13.80;79.70
16627;DHT22;8427;52.204;7.202;2023-09-19T05:55:31;13.90;79.60
16627;DHT22;8427;52.204;7.202;2023-09-19T05:57:59;13.90;79.10
16627;DHT22;8427;52.204;7.202;2023-09-19T06:00:27;14.00;79.00
16627;DHT22;8427;52.204;7.202;2023-09-19T06:02:56;14.10;79.10
16627;DHT22;8427;52.204;7.202;2023-09-19T06:05:25;14.00;78.70
16627;DHT22;8427;52.204;7.202;2023-09-19T06:07:54;14.20;78.70
16627;DHT22;8427;52.204;7.202;2023-09-19T06:10:22;14.20;78.40
16627;DHT22;8427;52.204;7.202;2023-09-19T06:12:50;14.30;78.50
16627;DHT22;8427;52.204;7.202;2023-09-19T06:15:18;14.40;77.60
16627;DHT22;8427;52.204;7.202;2023-09-19T06:17:47;14.40;77.90
16627;DHT22;8427;52.204;7.202;2023-09-19T06:20:16;14.50;77.70
16627;DHT22;8427;52.204;7.202;2023-09-19T06:22:46;14.60;77.60
16627;DHT22;8427;52.204;7.202;2023-09-19T06:25:14;14.50;77.40
16627;DHT22;8427;52.204;7.202;2023-09-19T06:27:45;14.60;77.60
16627;DHT22;8427;52.204;7.202;2023-09-19T06:30:13;14.50;77.90
16627;DHT22;8427;52.204;7.202;2023-09-19T06:32:41;14.50;77.70
16627;DHT22;8427;52.204;7.202;2023-09-19T06:35:10;14.50;77.90
16627;DHT22;8427;52.204;7.202;2023-09-19T06:37:38;14.50;78.00
16627;DHT22;8427;52.204;7.202;2023-09-19T06:40:08;14.50;78.40
16627;DHT22;8427;52.204;7.202;2023-09-19T06:42:40;14.50;78.00
16627;DHT22;8427;52.204;7.202;2023-09-19T06:45:08;14.40;78.30
16627;DHT22;8427;52.204;7.202;2023-09-19T06:47:38;14.50;78.40
16627;DHT22;8427;52.204;7.202;2023-09-19T06:50:05;14.40;78.80
16627;DHT22;8427;52.204;7.202;2023-09-19T06:52:39;14.50;79.10
16627;DHT22;8427;52.204;7.202;2023-09-19T06:55:09;14.40;78.80
16627;DHT22;8427;52.204;7.202;2023-09-19T06:57:38;14.50;78.90
16627;DHT22;8427;52.204;7.202;2023-09-19T07:00:07;14.60;79.00
16627;DHT22;8427;52.204;7.202;2023-09-19T07:02:41;14.60;78.90
16627;DHT22;8427;52.204;7.202;2023-09-19T07:05:09;14.70;78.60
16627;DHT22;8427;52.204;7.202;2023-09-19T07:07:37;14.80;78.50
16627;DHT22;8427;52.204;7.202;2023-09-19T07:10:05;14.90;78.60
16627;DHT22;8427;52.204;7.202;2023-09-19T07:12:36;14.90;78.40
16627;DHT22;8427;52.204;7.202;2023-09-19T07:15:04;14.90;77.80
16627;DHT22;8427;52.204;7.202;2023-09-19T07:17:32;15.00;77.90
16627;DHT22;8427;52.204;7.202;2023-09-19T07:20:00;15.00;77.60
16627;DHT22;8427;52.204;7.202;2023-09-19T07:22:34;15.20;77.10
16627;DHT22;8427;52.204;7.202;2023-09-19T07:25:03;15.20;77.40
16627;DHT22;8427;52.204;7.202;2023-09-19T07:27:31;15.20;77.00
16627;DHT22;8427;52.204;7.202;2023-09-19T07:30:01;15.30;77.40
16627;DHT22;8427;52.204;7.202;2023-09-19T07:32:28;15.30;77.20
16627;DHT22;8427;52.204;7.202;2023-09-19T07:34:57;15.40;77.80
16627;DHT22;8427;52.204;7.202;2023-09-19T07:37:25;15.40;77.20
16627;DHT22;8427;52.204;7.202;2023-09-19T07:39:53;15.50;77.20
16627;DHT22;8427;52.204;7.202;2023-09-19T07:42:22;15.50;77.00
16627;DHT22;8427;52.204;7.202;2023-09-19T07:44:50;15.70;77.20
16627;DHT22;8427;52.204;7.202;2023-09-19T07:47:22;15.70;76.50
16627;DHT22;8427;52.204;7.202;2023-09-19T07:49:49;15.80;76.70
16627;DHT22;8427;52.204;7.202;2023-09-19T07:52:17;15.80;76.60
16627;DHT22;8427;52.204;7.202;2023-09-19T07:54:45;15.90;76.10
16627;DHT22;8427;52.204;7.202;2023-09-19T07:57:15;15.80;76.30
16627;DHT22;8427;52.204;7.202;2023-09-19T07:59:43;16.00;76.30
16627;DHT22;8427;52.204;7.202;2023-09-19T08:02:12;16.00;76.70
16627;DHT22;8427;52.204;7.202;2023-09-19T08:04:44;16.00;76.70
16627;DHT22;8427;52.204;7.202;2023-09-19T08:07:13;16.10;76.50
16627;DHT22;8427;52.204;7.202;2023-09-19T08:09:40;16.20;76.30
16627;DHT22;8427;52.204;7.202;2023-09-19T08:12:12;16.20;76.00
16627;DHT22;8427;52.204;7.202;2023-09-19T08:14:41;16.30;76.10
16627;DHT22;8427;52.204;7.202;2023-09-19T08:17:09;16.30;75.90
16627;DHT22;8427;52.204;7.202;2023-09-19T08:19:38;16.30;76.00
16627;DHT22;8427;52.204;7.202;2023-09-19T08:22:09;16.40;75.70
16627;DHT22;8427;52.204;7.202;2023-09-19T08:24:38;16.30;75.60
16627;DHT22;8427;52.204;7.202;2023-09-19T08:27:05;16.50;75.80
16627;DHT22;8427;52.204;7.202;2023-09-19T08:29:36;16.60;75.40
16627;DHT22;8427;52.204;7.202;2023-09-19T08:32:03;16.60;74.70
16627;DHT22;8427;52.204;7.202;2023-09-19T08:34:32;16.60;74.70
16627;DHT22;8427;52.204;7.202;2023-09-19T08:37:00;16.70;74.70
16627;DHT22;8427;52.204;7.202;2023-09-19T08:39:29;16.80;74.70
16627;DHT22;8427;52.204;7.202;2023-09-19T08:41:57;16.90;73.90
16627;DHT22;8427;52.204;7.202;2023-09-19T08:44:26;16.80;74.60
16627;DHT22;8427;52.204;7.202;2023-09-19T08:46:59;16.90;74.10
16627;DHT22;8427;52.204;7.202;2023-09-19T08:49:33;16.90;73.20
16627;DHT22;8427;52.204;7.202;2023-09-19T08:52:04;16.90;74.30
16627;DHT22;8427;52.204;7.202;2023-09-19T08:54:37;16.80;73.20
16627;DHT22;8427;52.204;7.202;2023-09-19T08:57:06;16.80;72.50
16627;DHT22;8427;52.204;7.202;2023-09-19T08:59:37;16.90;73.60
16627;DHT22;8427;52.204;7.202;2023-09-19T09:02:08;16.90;73.20
16627;DHT22;8427;52.204;7.202;2023-09-19T09:04:39;17.10;72.00
16627;DHT22;8427;52.204;7.202;2023-09-19T09:07:09;17.10;71.40
16627;DHT22;8427;52.204;7.202;2023-09-19T09:09:39;17.10;71.90
16627;DHT22;8427;52.204;7.202;2023-09-19T09:12:08;17.20;71.50
16627;DHT22;8427;52.204;7.202;2023-09-19T09:14:39;17.40;72.00
16627;DHT22;8427;52.204;7.202;2023-09-19T09:17:07;17.40;71.50
16627;DHT22;8427;52.204;7.202;2023-09-19T09:19:36;17.30;71.20
16627;DHT22;8427;52.204;7.202;2023-09-19T09:22:07;17.30;71.20
16627;DHT22;8427;52.204;7.202;2023-09-19T09:24:36;17.20;70.60
16627;DHT22;8427;52.204;7.202;2023-09-19T09:27:07;17.20;72.00
16627;DHT22;8427;52.204;7.202;2023-09-19T09:29:43;17.40;70.80
16627;DHT22;8427;52.204;7.202;2023-09-19T09:32:17;17.40;70.50
16627;DHT22;8427;52.204;7.202;2023-09-19T09:34:47;17.50;71.50
16627;DHT22;8427;52.204;7.202;2023-09-19T09:37:16;17.80;70.20
16627;DHT22;8427;52.204;7.202;2023-09-19T09:39:49;17.50;69.20
16627;DHT22;8427;52.204;7.202;2023-09-19T09:42:32;17.50;70.40
16627;DHT22;8427;52.204;7.202;2023-09-19T09:45:12;17.70;70.50
16627;DHT22;8427;52.204;7.202;2023-09-19T09:47:44;17.80;70.10
16627;DHT22;8427;52.204;7.202;2023-09-19T09:50:23;17.80;70.00
16627;DHT22;8427;52.204;7.202;2023-09-19T09:52:55;17.70;70.80
16627;DHT22;8427;52.204;7.202;2023-09-19T09:55:56;18.00;69.80
16627;DHT22;8427;52.204;7.202;2023-09-19T09:58:25;17.90;69.90
16627;DHT22;8427;52.204;7.202;2023-09-19T10:00:56;18.10;69.60
16627;DHT22;8427;52.204;7.202;2023-09-19T10:03:31;18.30;68.80
16627;DHT22;8427;52.204;7.202;2023-09-19T10:06:00;18.30;68.40
16627;DHT22;8427;52.204;7.202;2023-09-19T10:08:38;18.30;67.50
16627;DHT22;8427;52.204;7.202;2023-09-19T10:11:16;18.40;68.50
16627;DHT22;8427;52.204;7.202;2023-09-19T10:13:47;18.40;68.80
16627;DHT22;8427;52.204;7.202;2023-09-19T10:16:14;18.40;69.00
16627;DHT22;8427;52.204;7.202;2023-09-19T10:18:46;18.40;69.10
16627;DHT22;8427;52.204;7.202;2023-09-19T10:21:15;18.50;69.00
16627;DHT22;8427;52.204;7.202;2023-09-19T10:23:48;18.50;69.40
16627;DHT22;8427;52.204;7.202;2023-09-19T10:26:18;18.70;69.40
16627;DHT22;8427;52.204;7.202;2023-09-19T10:28:48;18.70;69.00
16627;DHT22;8427;52.204;7.202;2023-09-19T10:31:17;18.80;69.10
16627;DHT22;8427;52.204;7.202;2023-09-19T10:33:46;18.90;66.70
16627;DHT22;8427;52.204;7.202;2023-09-19T10:36:15;19.00;66.50
16627;DHT22;8427;52.204;7.202;2023-09-19T10:38:43;19.00;65.60
16627;DHT22;8427;52.204;7.202;2023-09-19T10:43:41;19.30;64.70
16627;DHT22;8427;52.204;7.202;2023-09-19T10:46:12;19.30;64.60
16627;DHT22;8427;52.204;7.202;2023-09-19T10:48:40;19.40;64.10
16627;DHT22;8427;52.204;7.202;2023-09-19T10:51:11;19.50;63.60
16627;DHT22;8427;52.204;7.202;2023-09-19T10:53:41;19.50;62.30
16627;DHT22;8427;52.204;7.202;2023-09-19T10:56:10;19.70;63.80
16627;DHT22;8427;52.204;7.202;2023-09-19T10:58:44;19.80;62.20
16627;DHT22;8427;52.204;7.202;2023-09-19T11:01:13;19.80;61.80
16627;DHT22;8427;52.204;7.202;2023-09-19T11:03:41;19.80;61.10
16627;DHT22;8427;52.204;7.202;2023-09-19T11:06:11;19.50;61.30
16627;DHT22;8427;52.204;7.202;2023-09-19T11:08:52;19.50;62.60
16627;DHT22;8427;52.204;7.202;2023-09-19T11:11:41;19.40;63.00
16627;DHT22;8427;52.204;7.202;2023-09-19T11:25:44;19.60;61.40
16627;DHT22;8427;52.204;7.202;2023-09-19T11:36:37;19.50;62.60
16627;DHT22;8427;52.204;7.202;2023-09-19T11:39:06;19.70;62.80
16627;DHT22;8427;52.204;7.202;2023-09-19T11:41:42;19.70;62.20
16627;DHT22;8427;52.204;7.202;2023-09-19T11:44:31;19.90;60.90
16627;DHT22;8427;52.204;7.202;2023-09-19T11:47:01;19.80;59.70
16627;DHT22;8427;52.204;7.202;2023-09-19T11:49:30;19.80;60.20
16627;DHT22;8427;52.204;7.202;2023-09-19T11:51:59;19.80;61.70
16627;DHT22;8427;52.204;7.202;2023-09-19T11:54:27;19.90;61.10
16627;DHT22;8427;52.204;7.202;2023-09-19T11:56:59;20.00;61.30
16627;DHT22;8427;52.204;7.202;2023-09-19T11:59:28;20.00;60.90
16627;DHT22;8427;52.204;7.202;2023-09-19T12:01:57;20.20;60.80
16627;DHT22;8427;52.204;7.202;2023-09-19T12:04:33;20.20;60.00
16627;DHT22;8427;52.204;7.202;2023-09-19T12:07:02;20.30;60.50
16627;DHT22;8427;52.204;7.202;2023-09-19T12:09:31;20.30;59.70
16627;DHT22;8427;52.204;7.202;2023-09-19T12:12:00;20.30;61.10
16627;DHT22;8427;52.204;7.202;2023-09-19T12:14:28;20.20;59.80
16627;DHT22;8427;52.204;7.202;2023-09-19T12:16:56;20.30;59.00
16627;DHT22;8427;52.204;7.202;2023-09-19T12:19:25;20.40;60.00
16627;DHT22;8427;52.204;7.202;2023-09-19T12:21:54;20.40;60.20
16627;DHT22;8427;52.204;7.202;2023-09-19T12:24:23;20.30;58.40
16627;DHT22;8427;52.204;7.202;2023-09-19T12:26:53;20.40;60.40
16627;DHT22;8427;52.204;7.202;2023-09-19T12:29:24;20.60;58.60
16627;DHT22;8427;52.204;7.202;2023-09-19T12:31:54;20.50;59.30
16627;DHT22;8427;52.204;7.202;2023-09-19T12:34:25;20.40;60.20
16627;DHT22;8427;52.204;7.202;2023-09-19T12:37:04;20.40;59.40
16627;DHT22;8427;52.204;7.202;2023-09-19T12:39:41;20.20;59.70
16627;DHT22;8427;52.204;7.202;2023-09-19T12:42:10;20.10;59.70
16627;DHT22;8427;52.204;7.202;2023-09-19T12:44:42;19.80;60.70
16627;DHT22;8427;52.204;7.202;2023-09-19T12:47:14;19.90;61.40
16627;DHT22;8427;52.204;7.202;2023-09-19T12:50:05;20.00;60.80
16627;DHT22;8427;52.204;7.202;2023-09-19T12:52:35;20.10;61.80
16627;DHT22;8427;52.204;7.202;2023-09-19T12:55:04;20.40;62.00
16627;DHT22;8427;52.204;7.202;2023-09-19T12:57:33;20.40;60.50
16627;DHT22;8427;52.204;7.202;2023-09-19T13:00:02;20.50;60.40
16627;DHT22;8427;52.204;7.202;2023-09-19T13:02:32;20.40;61.00
16627;DHT22;8427;52.204;7.202;2023-09-19T13:05:00;20.60;62.80
16627;DHT22;8427;52.204;7.202;2023-09-19T13:07:40;20.70;59.10
16627;DHT22;8427;52.204;7.202;2023-09-19T13:10:10;20.50;59.40
16627;DHT22;8427;52.204;7.202;2023-09-19T13:12:38;20.70;58.70
16627;DHT22;8427;52.204;7.202;2023-09-19T13:15:08;20.90;60.00
16627;DHT22;8427;52.204;7.202;2023-09-19T13:17:43;20.90;59.30
16627;DHT22;8427;52.204;7.202;2023-09-19T13:20:21;20.80;58.10
16627;DHT22;8427;52.204;7.202;2023-09-19T13:22:51;20.90;59.60
16627;DHT22;8427;52.204;7.202;2023-09-19T13:25:21;21.00;59.10
16627;DHT22;8427;52.204;7.202;2023-09-19T13:27:50;21.10;59.90
16627;DHT22;8427;52.204;7.202;2023-09-19T13:30:22;21.10;58.70
16627;DHT22;8427;52.204;7.202;2023-09-19T13:32:50;21.20;57.60
16627;DHT22;8427;52.204;7.202;2023-09-19T13:35:19;21.00;57.10
16627;DHT22;8427;52.204;7.202;2023-09-19T13:37:47;21.10;57.70
16627;DHT22;8427;52.204;7.202;2023-09-19T13:40:18;21.00;57.90
16627;DHT22;8427;52.204;7.202;2023-09-19T13:42:45;21.00;57.10
16627;DHT22;8427;52.204;7.202;2023-09-19T13:45:13;20.70;57.60
16627;DHT22;8427;52.204;7.202;2023-09-19T13:47:45;20.50;57.40
16627;DHT22;8427;52.204;7.202;2023-09-19T13:50:13;20.30;58.20
16627;DHT22;8427;52.204;7.202;2023-09-19T13:52:41;20.30;58.30
16627;DHT22;8427;52.204;7.202;2023-09-19T13:55:09;20.40;58.70
16627;DHT22;8427;52.204;7.202;2023-09-19T13:57:36;20.40;58.50
16627;DHT22;8427;52.204;7.202;2023-09-19T14:00:05;20.40;59.50
16627;DHT22;8427;52.204;7.202;2023-09-19T14:02:36;20.50;58.60
16627;DHT22;8427;52.204;7.202;2023-09-19T14:05:07;20.50;59.50
16627;DHT22;8427;52.204;7.202;2023-09-19T14:07:35;20.30;59.70
16627;DHT22;8427;52.204;7.202;2023-09-19T14:10:03;20.10;60.20
16627;DHT22;8427;52.204;7.202;2023-09-19T14:12:34;20.00;59.40
16627;DHT22;8427;52.204;7.202;2023-09-19T14:15:02;20.10;59.50
16627;DHT22;8427;52.204;7.202;2023-09-19T14:17:30;20.10;60.50
16627;DHT22;8427;52.204;7.202;2023-09-19T14:19:58;20.00;60.50
16627;DHT22;8427;52.204;7.202;2023-09-19T14:22:27;20.00;61.60
16627;DHT22;8427;52.204;7.202;2023-09-19T14:24:56;20.10;62.10
16627;DHT22;8427;52.204;7.202;2023-09-19T14:27:25;20.10;60.50
16627;DHT22;8427;52.204;7.202;2023-09-19T14:29:53;20.00;60.40
16627;DHT22;8427;52.204;7.202;2023-09-19T14:32:21;19.90;61.30
16627;DHT22;8427;52.204;7.202;2023-09-19T14:34:49;20.10;61.40
16627;DHT22;8427;52.204;7.202;2023-09-19T14:37:17;20.00;60.50
16627;DHT22;8427;52.204;7.202;2023-09-19T14:39:48;20.00;61.40
16627;DHT22;8427;52.204;7.202;2023-09-19T14:42:16;20.00;61.90
16627;DHT22;8427;52.204;7.202;2023-09-19T14:44:44;20.10;61.70
16627;DHT22;8427;52.204;7.202;2023-09-19T14:47:14;20.10;61.60
16627;DHT22;8427;52.204;7.202;2023-09-19T14:49:43;20.10;62.00
16627;DHT22;8427;52.204;7.202;2023-09-19T14:52:11;20.10;59.90
16627;DHT22;8427;52.204;7.202;2023-09-19T14:54:42;20.00;60.70
16627;DHT22;8427;52.204;7.202;2023-09-19T14:57:11;20.00;61.00
16627;DHT22;8427;52.204;7.202;2023-09-19T14:59:40;20.00;62.10
16627;DHT22;8427;52.204;7.202;2023-09-19T15:02:08;20.00;61.10
16627;DHT22;8427;52.204;7.202;2023-09-19T15:04:36;20.00;61.10
16627;DHT22;8427;52.204;7.202;2023-09-19T15:07:07;20.00;62.00
16627;DHT22;8427;52.204;7.202;2023-09-19T15:09:35;20.00;60.70
16627;DHT22;8427;52.204;7.202;2023-09-19T15:12:03;20.20;61.60
16627;DHT22;8427;52.204;7.202;2023-09-19T15:14:33;20.10;62.00
16627;DHT22;8427;52.204;7.202;2023-09-19T15:17:00;20.20;61.30
16627;DHT22;8427;52.204;7.202;2023-09-19T15:19:31;20.30;60.90
16627;DHT22;8427;52.204;7.202;2023-09-19T15:21:59;20.20;61.10
16627;DHT22;8427;52.204;7.202;2023-09-19T15:24:26;20.20;60.50
16627;DHT22;8427;52.204;7.202;2023-09-19T15:26:54;20.20;61.20
16627;DHT22;8427;52.204;7.202;2023-09-19T15:29:22;20.20;61.70
16627;DHT22;8427;52.204;7.202;2023-09-19T15:31:53;20.10;61.60
16627;DHT22;8427;52.204;7.202;2023-09-19T15:34:21;20.10;62.10
16627;DHT22;8427;52.204;7.202;2023-09-19T15:36:49;20.10;62.60
16627;DHT22;8427;52.204;7.202;2023-09-19T15:39:17;20.10;62.10
16627;DHT22;8427;52.204;7.202;2023-09-19T15:41:49;20.00;62.80
16627;DHT22;8427;52.204;7.202;2023-09-19T15:44:18;19.90;63.10
16627;DHT22;8427;52.204;7.202;2023-09-19T15:46:46;19.80;63.00
16627;DHT22;8427;52.204;7.202;2023-09-19T15:49:16;19.80;63.80
16627;DHT22;8427;52.204;7.202;2023-09-19T15:51:43;19.90;63.90
16627;DHT22;8427;52.204;7.202;2023-09-19T15:54:12;19.70;63.30
16627;DHT22;8427;52.204;7.202;2023-09-19T15:56:41;19.70;63.40
16627;DHT22;8427;52.204;7.202;2023-09-19T15:59:08;19.70;63.30
16627;DHT22;8427;52.204;7.202;2023-09-19T16:01:39;19.70;63.70
16627;DHT22;8427;52.204;7.202;2023-09-19T16:04:10;19.70;63.50
16627;DHT22;8427;52.204;7.202;2023-09-19T16:06:40;19.70;63.70
16627;DHT22;8427;52.204;7.202;2023-09-19T16:09:08;19.60;63.70
16627;DHT22;8427;52.204;7.202;2023-09-19T16:11:36;19.50;64.20
16627;DHT22;8427;52.204;7.202;2023-09-19T16:14:04;19.40;64.20
16627;DHT22;8427;52.204;7.202;2023-09-19T16:16:33;19.40;64.20
16627;DHT22;8427;52.204;7.202;2023-09-19T16:19:02;19.30;64.20
16627;DHT22;8427;52.204;7.202;2023-09-19T16:21:32;19.30;64.10
16627;DHT22;8427;52.204;7.202;2023-09-19T16:24:03;19.30;64.30
16627;DHT22;8427;52.204;7.202;2023-09-19T16:26:35;19.20;63.70